createdAt,value
2018-03-08T00:05:50.472Z,8.27
2018-03-08T00:08:19.479Z,7.53
2018-03-08T00:10:48.708Z,8.07
2018-03-08T00:13:17.768Z,8.10
2018-03-08T00:15:47.619Z,8.40
2018-03-08T00:18:16.863Z,8.90
2018-03-08T00:20:45.712Z,7.37
2018-03-08T00:23:14.709Z,7.87
2018-03-08T00:25:43.757Z,7.87
2018-03-08T00:28:12.714Z,8.20
2018-03-08T00:30:41.712Z,8.17
2018-03-08T00:37:01.770Z,7.53
2018-03-08T00:39:30.727Z,7.43
2018-03-08T00:41:59.755Z,7.23
2018-03-08T00:44:29.308Z,7.70
2018-03-08T00:46:59.052Z,8.57
2018-03-08T00:49:28.482Z,6.70
2018-03-08T00:51:57.728Z,6.60
2018-03-08T00:54:26.651Z,7.57
2018-03-08T00:56:55.651Z,7.27
2018-03-08T00:59:24.666Z,7.23
2018-03-08T01:03:11.652Z,6.70
2018-03-08T01:05:41.468Z,7.00
2018-03-08T01:08:10.467Z,6.77
2018-03-08T01:10:39.655Z,8.07
2018-03-08T01:13:08.747Z,7.20
2018-03-08T01:15:37.740Z,6.90
2018-03-08T01:18:06.709Z,6.07
2018-03-08T01:20:35.718Z,5.97
2018-03-08T01:23:05.570Z,6.17
2018-03-08T01:25:34.647Z,6.63
2018-03-08T01:28:03.651Z,6.57
2018-03-08T01:30:32.668Z,6.10
2018-03-08T01:33:02.636Z,7.17
2018-03-08T01:35:31.701Z,6.97
2018-03-08T01:38:01.299Z,6.47
2018-03-08T01:40:30.525Z,6.07
2018-03-08T01:42:59.747Z,6.00
2018-03-08T01:45:28.695Z,5.93
2018-03-08T01:47:57.703Z,6.73
2018-03-08T01:50:26.715Z,6.60
2018-03-08T01:52:56.696Z,6.10
2018-03-08T01:55:25.791Z,6.07
2018-03-08T01:57:54.777Z,6.37
2018-03-08T02:00:23.744Z,6.40
2018-03-08T02:02:52.764Z,5.60
2018-03-08T02:05:21.751Z,6.93
2018-03-08T02:07:50.754Z,5.03
2018-03-08T02:10:19.746Z,6.23
2018-03-08T02:14:39.721Z,5.70
2018-03-08T02:17:08.724Z,5.20
2018-03-08T02:19:37.727Z,5.50
2018-03-08T02:22:06.667Z,5.80
2018-03-08T02:24:35.757Z,6.10
2018-03-08T02:27:05.031Z,5.37
2018-03-08T02:32:02.644Z,4.97
2018-03-08T02:34:31.653Z,5.07
2018-03-08T02:37:00.678Z,6.30
2018-03-08T02:39:29.639Z,6.43
2018-03-08T02:41:58.645Z,5.93
2018-03-08T02:44:27.688Z,4.80
2018-03-08T02:46:56.696Z,5.03
2018-03-08T02:49:25.691Z,5.53
2018-03-08T02:51:54.656Z,4.93
2018-03-08T02:56:13.164Z,5.30
2018-03-08T02:58:42.739Z,5.87
2018-03-08T03:01:11.732Z,5.87
2018-03-08T03:03:41.160Z,5.63
2018-03-08T03:06:11.529Z,5.03
2018-03-08T03:08:40.859Z,4.57
2018-03-08T03:13:15.433Z,5.07
2018-03-08T03:16:45.626Z,4.77
2018-03-08T03:19:14.901Z,4.60
2018-03-08T03:24:13.569Z,5.07
2018-03-08T03:26:43.043Z,4.73
2018-03-08T03:31:40.903Z,4.63
2018-03-08T03:36:38.803Z,4.33
2018-03-08T03:39:08.230Z,4.80
2018-03-08T03:41:37.743Z,4.37
2018-03-08T03:46:09.665Z,4.53
2018-03-08T03:48:38.653Z,5.20
2018-03-08T03:51:07.660Z,4.87
2018-03-08T03:53:36.891Z,4.30
2018-03-08T03:56:06.448Z,4.40
2018-03-08T04:00:29.669Z,4.57
2018-03-08T04:02:58.737Z,4.80
2018-03-08T04:08:21.349Z,4.07
2018-03-08T04:10:50.735Z,4.47
2018-03-08T04:13:20.163Z,4.47
2018-03-08T04:20:34.803Z,4.27
2018-03-08T04:24:55.718Z,3.90
2018-03-08T04:27:25.786Z,3.57
2018-03-08T04:29:54.762Z,4.33
2018-03-08T04:32:24.461Z,4.30
2018-03-08T04:34:54.113Z,3.77
2018-03-08T04:37:23.724Z,4.10
2018-03-08T04:39:52.863Z,4.60
2018-03-08T04:45:09.704Z,4.27
2018-03-08T04:47:38.780Z,4.07
2018-03-08T04:52:49.715Z,4.10
2018-03-08T04:55:18.703Z,3.43
2018-03-08T04:57:49.188Z,3.90
2018-03-08T05:00:18.676Z,3.93
2018-03-08T05:02:47.704Z,3.43
2018-03-08T05:07:04.710Z,4.10
2018-03-08T05:09:33.747Z,3.43
2018-03-08T05:12:02.688Z,3.90
2018-03-08T05:14:31.691Z,4.13
2018-03-08T05:17:00.842Z,4.23
2018-03-08T05:19:29.863Z,4.27
2018-03-08T05:21:58.964Z,5.70
2018-03-08T05:26:56.684Z,6.27
2018-03-08T05:29:25.859Z,5.40
2018-03-08T05:31:54.730Z,5.37
2018-03-08T05:34:23.675Z,5.00
2018-03-08T05:36:52.688Z,5.50
2018-03-08T05:39:21.713Z,5.07
2018-03-08T05:41:50.723Z,6.37
2018-03-08T05:44:19.743Z,7.67
2018-03-08T05:46:48.869Z,8.30
2018-03-08T05:49:18.482Z,8.67
2018-03-08T05:51:47.616Z,6.10
2018-03-08T05:55:39.665Z,6.83
2018-03-08T05:58:08.694Z,7.30
2018-03-08T06:00:37.746Z,6.80
2018-03-08T06:03:06.674Z,7.30
2018-03-08T06:05:35.721Z,6.43
2018-03-08T06:08:04.683Z,9.47
2018-03-08T06:10:33.672Z,12.00
2018-03-08T06:13:02.667Z,12.20
2018-03-08T06:15:31.692Z,10.53
2018-03-08T06:18:00.667Z,11.80
2018-03-08T06:20:29.684Z,9.80
2018-03-08T06:22:58.608Z,8.37
2018-03-08T06:25:27.620Z,7.70
2018-03-08T06:27:56.663Z,9.87
2018-03-08T06:30:25.681Z,8.93
2018-03-08T06:32:54.684Z,8.80
2018-03-08T06:35:23.629Z,8.27
2018-03-08T06:37:52.663Z,11.33
2018-03-08T06:40:21.636Z,8.23
2018-03-08T06:42:50.642Z,9.63
2018-03-08T06:47:17.627Z,9.63
2018-03-08T06:51:52.695Z,14.77
2018-03-08T06:54:22.581Z,10.57
2018-03-08T06:56:51.635Z,9.97
2018-03-08T07:02:09.691Z,8.50
2018-03-08T07:06:00.723Z,9.07
2018-03-08T07:08:29.691Z,8.33
2018-03-08T07:10:59.030Z,7.47
2018-03-08T07:13:28.428Z,11.80
2018-03-08T07:15:57.635Z,10.00
2018-03-08T07:18:26.623Z,9.37
2018-03-08T07:24:39.627Z,8.20
2018-03-08T07:27:09.631Z,9.80
2018-03-08T07:29:39.317Z,10.57
2018-03-08T07:32:08.621Z,8.43
2018-03-08T07:34:37.679Z,11.30
2018-03-08T07:37:06.636Z,9.70
2018-03-08T07:39:36.455Z,7.20
2018-03-08T07:42:49.627Z,8.63
2018-03-08T07:45:18.641Z,7.27
2018-03-08T07:47:47.611Z,7.83
2018-03-08T07:50:16.632Z,8.23
2018-03-08T07:52:45.651Z,8.50
2018-03-08T07:56:25.665Z,8.17
2018-03-08T07:58:54.601Z,7.53
2018-03-08T08:01:23.601Z,7.57
2018-03-08T08:03:52.643Z,9.47
2018-03-08T08:09:29.413Z,7.67
2018-03-08T08:11:58.615Z,7.23
2018-03-08T08:14:27.683Z,8.43
2018-03-08T08:16:56.730Z,7.00
2018-03-08T08:19:25.666Z,5.77
2018-03-08T08:21:54.682Z,6.30
2018-03-08T08:24:23.659Z,7.00
2018-03-08T08:26:52.654Z,5.80
2018-03-08T08:29:21.715Z,6.27
2018-03-08T08:31:50.707Z,6.60
2018-03-08T08:34:19.720Z,5.57
2018-03-08T08:36:48.697Z,5.90
2018-03-08T08:39:18.599Z,6.47
2018-03-08T08:41:47.659Z,5.20
2018-03-08T08:44:16.705Z,6.23
2018-03-08T08:46:45.669Z,6.50
2018-03-08T08:49:14.666Z,6.70
2018-03-08T08:51:43.635Z,5.63
2018-03-08T08:56:28.837Z,6.00
2018-03-08T08:58:57.644Z,5.80
2018-03-08T09:01:28.592Z,6.97
2018-03-08T09:03:57.772Z,7.20
2018-03-08T09:06:26.681Z,5.00
2018-03-08T09:08:55.662Z,5.10
2018-03-08T09:11:24.724Z,4.90
2018-03-08T09:13:53.841Z,5.80
2018-03-08T09:16:22.632Z,5.23
2018-03-08T09:18:51.755Z,4.90
2018-03-08T09:21:20.642Z,5.20
2018-03-08T09:23:49.726Z,4.83
2018-03-08T09:26:19.685Z,6.00
2018-03-08T09:28:48.747Z,5.93
2018-03-08T09:31:17.709Z,4.80
2018-03-08T09:33:46.646Z,5.10
2018-03-08T09:36:15.631Z,5.23
2018-03-08T09:38:44.600Z,5.23
2018-03-08T09:41:13.697Z,5.17
2018-03-08T09:43:43.199Z,3.87
2018-03-08T09:46:12.667Z,5.70
2018-03-08T09:48:41.849Z,4.60
2018-03-08T09:51:10.704Z,4.37
2018-03-08T09:53:39.659Z,4.83
2018-03-08T09:56:08.768Z,3.83
2018-03-08T09:58:38.194Z,4.93
2018-03-08T10:01:07.700Z,4.67
2018-03-08T10:03:37.203Z,4.70
2018-03-08T10:06:07.437Z,4.90
2018-03-08T10:08:36.687Z,4.37
2018-03-08T10:11:05.995Z,5.60
2018-03-08T10:16:03.671Z,3.77
2018-03-08T10:18:32.598Z,5.60
2018-03-08T10:21:01.635Z,5.00
2018-03-08T10:23:31.421Z,4.87
2018-03-08T10:26:00.700Z,4.60
2018-03-08T10:28:29.644Z,3.73
2018-03-08T10:30:59.220Z,3.77
2018-03-08T10:33:28.637Z,4.07
2018-03-08T10:35:57.647Z,4.13
2018-03-08T10:38:26.716Z,4.47
2018-03-08T10:40:55.785Z,3.50
2018-03-08T10:43:24.743Z,3.77
2018-03-08T10:45:54.285Z,3.20
2018-03-08T10:48:23.705Z,3.80
2018-03-08T10:50:52.700Z,5.73
2018-03-08T10:56:11.464Z,4.13
2018-03-08T10:58:40.492Z,4.17
2018-03-08T11:01:09.669Z,3.67
2018-03-08T11:03:44.510Z,3.40
2018-03-08T11:06:20.565Z,3.37
2018-03-08T11:08:49.697Z,3.33
2018-03-08T11:11:19.511Z,4.10
2018-03-08T11:13:48.694Z,3.77
2018-03-08T11:16:17.755Z,3.30
2018-03-08T11:18:46.856Z,4.17
2018-03-08T11:21:16.478Z,3.10
2018-03-08T11:23:46.604Z,4.53
2018-03-08T11:26:15.709Z,3.30
2018-03-08T11:28:44.735Z,4.67
2018-03-08T11:31:43.733Z,3.17
2018-03-08T11:34:12.843Z,4.10
2018-03-08T11:36:41.708Z,3.80
2018-03-08T11:39:10.675Z,2.73
2018-03-08T11:41:39.671Z,3.17
2018-03-08T11:44:08.961Z,3.53
2018-03-08T11:46:37.691Z,3.17
2018-03-08T11:49:06.720Z,3.17
2018-03-08T11:51:36.738Z,3.80
2018-03-08T11:54:05.681Z,2.87
2018-03-08T11:56:34.645Z,3.87
2018-03-08T11:59:03.684Z,2.47
2018-03-08T12:01:32.658Z,2.77
2018-03-08T12:04:02.715Z,2.67
2018-03-08T12:06:31.755Z,2.97
2018-03-08T12:09:00.843Z,1.97
2018-03-08T12:11:29.867Z,2.80
2018-03-08T12:13:58.757Z,2.90
2018-03-08T12:16:27.712Z,2.47
2018-03-08T12:18:56.764Z,2.40
2018-03-08T12:21:26.039Z,2.97
2018-03-08T12:26:24.303Z,2.30
2018-03-08T12:31:36.723Z,2.60
2018-03-08T12:34:06.225Z,3.70
2018-03-08T12:36:35.693Z,2.10
2018-03-08T12:39:05.665Z,2.20
2018-03-08T12:41:35.636Z,2.30
2018-03-08T12:44:04.700Z,2.57
2018-03-08T12:46:33.730Z,2.57
2018-03-08T12:49:03.583Z,2.00
2018-03-08T12:51:32.733Z,1.67
2018-03-08T12:54:01.730Z,2.53
2018-03-08T12:56:30.716Z,2.33
2018-03-08T12:59:00.137Z,2.20
2018-03-08T13:01:29.707Z,2.80
2018-03-08T13:03:59.385Z,1.87
2018-03-08T13:06:29.068Z,3.40
2018-03-08T13:08:58.743Z,2.05
2018-03-08T13:11:27.728Z,3.17
2018-03-08T13:13:56.851Z,2.50
2018-03-08T13:16:25.675Z,3.33
2018-03-08T13:18:55.612Z,2.53
2018-03-08T13:21:24.697Z,1.83
2018-03-08T13:23:53.657Z,2.30
2018-03-08T13:26:22.649Z,2.30
2018-03-08T13:28:51.739Z,2.87
2018-03-08T13:31:21.735Z,2.00
2018-03-08T13:37:37.615Z,1.83
2018-03-08T13:40:06.856Z,2.87
2018-03-08T13:42:35.730Z,3.20
2018-03-08T13:45:04.849Z,2.10
2018-03-08T13:47:33.723Z,3.23
2018-03-08T13:50:02.715Z,2.40
2018-03-08T13:52:31.771Z,2.57
2018-03-08T13:55:47.656Z,1.97
2018-03-08T13:58:16.744Z,3.40
2018-03-08T14:00:45.664Z,2.33
2018-03-08T14:03:14.689Z,2.00
2018-03-08T14:05:43.705Z,3.23
2018-03-08T14:08:12.701Z,2.97
2018-03-08T14:10:41.649Z,2.13
2018-03-08T14:13:10.675Z,2.90
2018-03-08T14:15:39.671Z,2.87
2018-03-08T14:18:08.630Z,1.90
2018-03-08T14:20:37.671Z,2.80
2018-03-08T14:23:06.681Z,2.80
2018-03-08T14:25:36.603Z,2.00
2018-03-08T14:28:05.631Z,2.53
2018-03-08T14:30:34.693Z,2.17
2018-03-08T14:33:03.647Z,2.30
2018-03-08T14:38:18.680Z,2.53
2018-03-08T14:40:47.615Z,2.70
2018-03-08T14:43:16.648Z,2.17
2018-03-08T14:45:45.620Z,2.43
2018-03-08T14:48:14.635Z,2.50
2018-03-08T14:52:40.694Z,2.20
2018-03-08T14:55:09.677Z,2.27
2018-03-08T14:57:38.655Z,2.00
2018-03-08T15:00:07.687Z,3.03
2018-03-08T15:02:36.694Z,5.77
2018-03-08T15:05:05.684Z,5.50
2018-03-08T15:07:34.698Z,7.50
2018-03-08T15:14:19.459Z,7.10
2018-03-08T15:16:48.683Z,6.53
2018-03-08T15:19:17.646Z,6.10
2018-03-08T15:21:46.662Z,6.90
2018-03-08T15:26:16.432Z,8.80
2018-03-08T15:28:45.437Z,8.63
2018-03-08T15:31:14.707Z,7.90
2018-03-08T15:33:43.627Z,5.60
2018-03-08T15:37:08.727Z,6.37
2018-03-08T15:39:37.631Z,6.93
2018-03-08T15:42:06.617Z,5.47
2018-03-08T15:44:35.632Z,7.73
2018-03-08T15:47:04.658Z,5.50
2018-03-08T15:49:34.186Z,6.73
2018-03-08T15:55:05.680Z,11.50
2018-03-08T15:57:34.897Z,15.80
2018-03-08T16:02:32.731Z,27.60
2018-03-08T16:05:01.722Z,31.77
2018-03-08T16:10:53.788Z,41.97
2018-03-08T16:13:22.745Z,35.40
2018-03-08T16:15:52.169Z,37.27
2018-03-08T16:18:24.725Z,32.73
2018-03-08T16:20:55.448Z,40.20
2018-03-08T16:23:24.701Z,43.40
2018-03-08T16:25:53.726Z,44.67
2018-03-08T16:28:23.194Z,41.67
2018-03-08T16:30:52.672Z,38.33
2018-03-08T16:33:22.202Z,32.27
2018-03-08T16:35:56.311Z,28.60
2018-03-08T16:38:25.892Z,28.27
2018-03-08T16:43:23.748Z,72.07
2018-03-08T16:45:53.523Z,92.43
2018-03-08T16:48:22.891Z,123.83
2018-03-08T17:02:11.512Z,57.27
2018-03-08T17:04:40.673Z,52.30
2018-03-08T17:07:10.546Z,46.50
2018-03-08T17:09:39.621Z,55.63
2018-03-08T17:12:08.661Z,48.00
2018-03-08T17:17:19.520Z,44.07
2018-03-08T17:22:36.711Z,39.23
2018-03-08T17:25:05.643Z,39.50
2018-03-08T17:27:34.653Z,36.87
2018-03-08T17:30:03.651Z,34.50
2018-03-08T17:32:32.644Z,38.87
2018-03-08T17:35:01.685Z,39.00
2018-03-08T17:42:56.296Z,32.60
2018-03-08T17:45:25.702Z,32.03
2018-03-08T17:47:54.701Z,31.50
2018-03-08T17:50:23.647Z,33.60
2018-03-08T17:52:52.671Z,27.23
2018-03-08T18:03:10.575Z,30.10
2018-03-08T18:05:39.638Z,28.50
2018-03-08T18:08:08.624Z,26.80
2018-03-08T18:10:37.659Z,26.20
2018-03-08T18:13:06.627Z,25.97
2018-03-08T18:15:35.620Z,26.40
2018-03-08T18:18:04.583Z,26.47
2018-03-08T18:20:33.626Z,27.70
2018-03-08T18:25:30.620Z,24.97
2018-03-08T18:27:59.602Z,25.10
2018-03-08T18:34:07.749Z,23.23
2018-03-08T18:36:36.617Z,27.23
2018-03-08T18:40:09.669Z,26.70
2018-03-08T18:42:38.660Z,25.63
2018-03-08T18:46:13.575Z,24.97
2018-03-08T18:49:32.623Z,24.87
2018-03-08T18:53:58.643Z,25.40
2018-03-08T18:56:27.628Z,28.05
2018-03-08T18:58:56.703Z,54.23
2018-03-08T19:01:25.624Z,39.40
2018-03-08T19:06:22.623Z,32.70
2018-03-08T19:08:51.633Z,27.90
2018-03-08T19:11:20.647Z,31.20
2018-03-08T19:13:49.634Z,29.37
2018-03-08T19:16:18.667Z,31.77
2018-03-08T19:18:47.627Z,23.93
2018-03-08T19:21:16.619Z,25.93
2018-03-08T19:28:30.667Z,27.50
2018-03-08T20:15:37.078Z,80.33
2018-03-08T20:18:05.673Z,78.85
2018-03-08T20:20:34.467Z,51.17
2018-03-08T20:23:03.499Z,122.20
2018-03-08T20:25:32.535Z,134.87
2018-03-08T20:28:01.579Z,137.43
2018-03-08T20:30:30.527Z,136.03
2018-03-08T20:32:59.479Z,100.27
2018-03-08T20:35:28.373Z,365.95
2018-03-08T20:37:57.373Z,155.90
2018-03-08T20:40:26.340Z,115.73
2018-03-08T20:42:55.246Z,102.93
2018-03-08T20:45:24.019Z,93.65
2018-03-08T22:02:36.506Z,62.70
2018-03-08T22:05:05.513Z,62.60
2018-03-08T22:07:34.282Z,59.70
2018-03-08T22:10:03.051Z,65.57
2018-03-08T22:12:31.709Z,64.50
2018-03-08T22:15:00.507Z,70.82
2018-03-08T22:17:29.313Z,71.15
2018-03-08T22:19:57.970Z,74.87
2018-03-08T22:26:48.489Z,75.05
2018-03-08T22:29:17.699Z,73.30
2018-03-08T22:31:46.503Z,65.70
2018-03-08T22:34:15.725Z,74.47
2018-03-08T22:36:44.683Z,65.62
2018-03-08T22:39:13.736Z,65.03
2018-03-08T22:41:42.717Z,61.95
2018-03-08T22:44:11.592Z,61.17
2018-03-08T22:46:40.718Z,60.38
2018-03-08T22:49:09.474Z,56.58
2018-03-08T22:51:38.281Z,54.70
2018-03-08T22:54:07.249Z,54.33
2018-03-08T22:56:36.424Z,51.58
2018-03-08T22:59:05.280Z,48.87
2018-03-08T23:11:58.016Z,46.80
2018-03-08T23:14:26.743Z,44.20
2018-03-08T23:16:55.575Z,42.62
2018-03-08T23:19:24.515Z,42.90
2018-03-08T23:21:53.568Z,44.72
2018-03-08T23:24:22.502Z,43.25
2018-03-08T23:26:51.497Z,81.28
2018-03-08T23:29:20.519Z,166.43
2018-03-08T23:31:49.642Z,154.30
2018-03-08T23:34:18.525Z,160.80
2018-03-08T23:36:47.664Z,149.17
2018-03-08T23:39:16.498Z,138.37
2018-03-08T23:43:11.359Z,128.20
2018-03-08T23:45:40.524Z,119.33
2018-03-08T23:48:09.569Z,117.18
2018-03-08T23:50:38.807Z,104.35
2018-03-08T23:53:08.286Z,98.30
2018-03-08T23:58:06.301Z,90.63
